Terminal Aerodrome Forecast
Issued by NWS Shreveport, LA

Home | Current Version | Previous Version | Text Only | Print | Product List | Glossary On
Versions: 1 2 3 4 5 6 7 8 9 10 11 12 13 14 15 16 17 18 19 20 21 22 23 24 25 26 27 28 29 30 31 32 33 34 35 36
358
FTUS44 KSHV 291801 RRA
TAFMLU
TAF
KMLU 291801Z 2918/3018 23007KT P6SM VCSH BKN040 BKN250
     FM300100 19005KT P6SM FEW060 SCT250
     FM301000 19003KT P6SM BKN025 BKN040
     FM301500 27006KT P6SM VCSH BKN040 OVC080=

USA.gov is the U.S. government's official web portal to all federal, state and local government web resources and services.